createdAt,value
2022-10-17T00:00:53.857Z,99.90
2022-10-17T00:04:25.297Z,99.90
2022-10-17T00:07:57.542Z,98.80
2022-10-17T00:11:51.285Z,98.50
2022-10-17T00:15:35.164Z,99.20
2022-10-17T00:19:06.518Z,97.90
2022-10-17T00:22:37.404Z,98.10
2022-10-17T00:26:20.017Z,98.40
2022-10-17T00:29:50.998Z,98.60
2022-10-17T00:33:21.916Z,98.90
2022-10-17T00:37:10.622Z,98.40
2022-10-17T00:40:43.060Z,99.90
2022-10-17T00:45:12.469Z,98.10
2022-10-17T00:48:53.713Z,99.60
2022-10-17T00:52:47.190Z,99.90
2022-10-17T00:56:29.281Z,99.50
2022-10-17T00:59:53.265Z,99.10
2022-10-17T01:03:25.477Z,99.90
2022-10-17T01:06:56.828Z,98.90
2022-10-17T01:10:28.555Z,98.20
2022-10-17T01:22:18.812Z,99.90
2022-10-17T01:26:30.451Z,97.00
2022-10-17T01:46:33.206Z,98.30
2022-10-17T01:50:08.356Z,97.10
2022-10-17T01:54:14.626Z,98.00
2022-10-17T02:01:39.164Z,98.60
2022-10-17T02:05:11.697Z,98.60
2022-10-17T02:09:03.676Z,98.30
2022-10-17T02:25:06.656Z,99.90
2022-10-17T02:56:09.347Z,98.40
2022-10-17T02:59:43.936Z,99.90
2022-10-17T03:10:16.151Z,97.90
2022-10-17T03:13:48.354Z,98.60
2022-10-17T03:17:19.617Z,97.60
2022-10-17T03:20:50.997Z,99.60
2022-10-17T03:24:22.652Z,97.80
2022-10-17T03:27:53.582Z,97.90
2022-10-17T03:31:26.117Z,98.80
2022-10-17T03:34:57.421Z,97.90
2022-10-17T03:38:29.400Z,97.50
2022-10-17T03:42:01.062Z,98.30
2022-10-17T03:45:32.722Z,98.80
2022-10-17T03:49:05.509Z,99.90
2022-10-17T03:52:47.965Z,99.90
2022-10-17T03:56:40.055Z,99.80
2022-10-17T04:00:11.688Z,99.80
2022-10-17T04:03:42.762Z,99.90
2022-10-17T04:07:14.268Z,99.90
2022-10-17T04:10:46.375Z,99.90
2022-10-17T04:14:29.304Z,99.90
2022-10-17T04:18:00.830Z,99.90
2022-10-17T04:21:34.281Z,99.90
2022-10-17T04:25:06.181Z,99.90
2022-10-17T04:28:28.552Z,99.60
2022-10-17T04:31:59.980Z,99.90
2022-10-17T04:35:32.025Z,99.90
2022-10-17T04:39:03.434Z,99.40
2022-10-17T04:42:34.923Z,99.90
2022-10-17T04:46:17.150Z,99.40
2022-10-17T04:49:39.184Z,99.90
2022-10-17T04:53:12.283Z,99.90
2022-10-17T04:56:54.992Z,99.90
2022-10-17T05:00:32.784Z,99.90
2022-10-17T05:04:04.942Z,99.10
2022-10-17T05:07:35.785Z,99.00
2022-10-17T05:11:07.328Z,98.80
2022-10-17T05:14:39.221Z,98.60
2022-10-17T05:18:13.278Z,98.70
2022-10-17T05:21:45.972Z,98.60
2022-10-17T05:25:17.522Z,97.80
2022-10-17T05:28:49.222Z,99.20
2022-10-17T05:32:20.246Z,98.30
2022-10-17T05:35:52.164Z,97.80
2022-10-17T05:39:25.489Z,98.70
2022-10-17T05:42:57.195Z,99.90
2022-10-17T05:46:31.381Z,97.00
2022-10-17T05:50:02.202Z,96.60
2022-10-17T05:53:33.047Z,97.00
2022-10-17T05:57:05.319Z,98.00
2022-10-17T06:00:36.848Z,96.40
2022-10-17T06:04:08.245Z,96.40
2022-10-17T06:07:39.952Z,96.30
2022-10-17T06:11:11.050Z,96.00
2022-10-17T06:14:42.357Z,96.60
2022-10-17T06:18:13.673Z,94.70
2022-10-17T06:21:59.345Z,95.70
2022-10-17T06:25:30.387Z,94.80
2022-10-17T06:29:01.301Z,94.10
2022-10-17T06:32:32.993Z,93.80
2022-10-17T06:36:09.262Z,93.30
2022-10-17T06:39:40.312Z,93.40
2022-10-17T06:43:11.358Z,93.20
2022-10-17T06:46:43.756Z,92.60
2022-10-17T06:50:14.879Z,91.50
2022-10-17T06:53:47.253Z,91.50
2022-10-17T06:57:18.156Z,91.90
2022-10-17T07:00:50.055Z,92.10
2022-10-17T07:04:24.081Z,92.30
2022-10-17T07:07:58.245Z,92.30
2022-10-17T07:11:41.024Z,91.70
2022-10-17T07:15:13.076Z,91.20
2022-10-17T07:18:44.263Z,91.50
2022-10-17T07:22:15.290Z,91.10
2022-10-17T07:25:46.449Z,90.90
2022-10-17T07:29:21.091Z,90.40
2022-10-17T07:32:52.501Z,90.00
2022-10-17T07:36:25.552Z,89.30
2022-10-17T07:39:56.688Z,89.40
2022-10-17T07:43:28.341Z,88.70
2022-10-17T07:46:59.215Z,88.50
2022-10-17T07:50:31.422Z,88.60
2022-10-17T07:53:54.298Z,88.50
2022-10-17T07:57:25.333Z,87.50
2022-10-17T08:00:56.484Z,87.10
2022-10-17T08:04:27.396Z,86.40
2022-10-17T08:07:58.255Z,85.20
2022-10-17T08:11:31.403Z,84.20
2022-10-17T08:15:02.461Z,82.70
2022-10-17T08:18:33.978Z,82.60
2022-10-17T08:22:05.420Z,82.50
2022-10-17T08:25:37.048Z,81.90
2022-10-17T08:29:08.205Z,80.70
2022-10-17T08:32:39.568Z,80.00
2022-10-17T08:36:10.999Z,80.10
2022-10-17T08:39:42.294Z,77.60
2022-10-17T08:55:31.342Z,72.30
2022-10-17T08:59:30.295Z,72.20
2022-10-17T09:03:54.377Z,65.70
2022-10-17T09:28:43.929Z,65.90
2022-10-17T09:32:48.720Z,60.30
2022-10-17T09:39:52.770Z,66.70
2022-10-17T09:47:23.124Z,63.90
2022-10-17T09:51:14.858Z,63.00
2022-10-17T10:30:34.813Z,71.20
2022-10-17T10:34:13.403Z,78.10
2022-10-17T10:38:12.935Z,77.70
2022-10-17T10:41:55.053Z,87.30
2022-10-17T11:04:57.683Z,71.50
2022-10-17T11:08:54.761Z,61.20
2022-10-17T11:21:34.611Z,63.20
2022-10-17T11:33:29.742Z,69.30
2022-10-17T11:37:17.557Z,60.40
2022-10-17T11:41:16.482Z,58.60
2022-10-17T12:05:25.601Z,59.00
2022-10-17T12:09:32.496Z,66.70
2022-10-17T12:22:24.410Z,57.40
2022-10-17T12:26:10.031Z,61.40
2022-10-17T12:29:51.884Z,65.20
2022-10-17T12:46:55.401Z,59.60
2022-10-17T14:10:05.209Z,62.40
2022-10-17T14:17:49.203Z,74.20
2022-10-17T14:21:43.971Z,65.90
2022-10-17T14:25:28.178Z,74.10
2022-10-17T14:29:01.710Z,74.10
2022-10-17T14:32:46.565Z,73.60
2022-10-17T14:36:28.337Z,62.90
2022-10-17T14:40:00.987Z,72.70
2022-10-17T14:43:34.223Z,75.60
2022-10-17T14:47:41.616Z,76.40
2022-10-17T14:51:57.128Z,78.20
2022-10-17T14:55:50.993Z,73.90
2022-10-17T14:59:51.763Z,79.40
2022-10-17T15:03:19.222Z,80.30
2022-10-17T15:07:34.397Z,80.10
2022-10-17T15:33:19.894Z,83.50
2022-10-17T15:37:07.757Z,83.60
2022-10-17T15:40:43.617Z,81.40
2022-10-17T15:44:15.799Z,83.70
2022-10-17T15:48:08.158Z,83.90
2022-10-17T15:51:38.989Z,82.90
2022-10-17T15:55:09.997Z,83.90
2022-10-17T15:58:54.869Z,84.10
2022-10-17T16:02:37.179Z,84.10
2022-10-17T16:06:17.913Z,84.10
2022-10-17T16:09:49.140Z,83.10
2022-10-17T16:13:23.893Z,84.80
2022-10-17T16:16:54.996Z,85.30
2022-10-17T16:20:26.642Z,85.80
2022-10-17T16:23:57.694Z,86.00
2022-10-17T16:27:29.016Z,86.20
2022-10-17T16:31:01.320Z,86.10
2022-10-17T16:34:33.899Z,86.40
2022-10-17T16:38:04.731Z,86.90
2022-10-17T16:41:49.165Z,87.20
2022-10-17T16:45:32.529Z,87.50
2022-10-17T16:49:03.497Z,86.90
2022-10-17T16:52:34.845Z,87.40
2022-10-17T16:56:17.122Z,87.30
2022-10-17T16:59:48.313Z,87.40
2022-10-17T17:03:19.562Z,87.80
2022-10-17T17:06:53.716Z,88.30
2022-10-17T17:10:24.785Z,89.20
2022-10-17T17:13:56.372Z,88.50
2022-10-17T17:17:44.227Z,88.00
2022-10-17T17:21:29.757Z,88.00
2022-10-17T17:25:06.784Z,88.20
2022-10-17T17:28:39.776Z,88.40
2022-10-17T17:32:11.807Z,88.50
2022-10-17T17:35:43.205Z,88.80
2022-10-17T17:39:26.827Z,88.90
2022-10-17T17:42:57.912Z,88.90
2022-10-17T17:46:29.876Z,89.10
2022-10-17T17:50:01.397Z,89.20
2022-10-17T17:53:33.902Z,89.20
2022-10-17T17:57:06.031Z,89.20
2022-10-17T18:00:36.742Z,89.80
2022-10-17T18:04:08.685Z,89.80
2022-10-17T18:07:30.351Z,89.90
2022-10-17T18:11:15.059Z,90.70
2022-10-17T18:14:49.291Z,90.20
2022-10-17T18:18:20.043Z,90.00
2022-10-17T18:21:51.157Z,89.80
2022-10-17T18:25:22.050Z,89.60
2022-10-17T18:28:54.220Z,89.90
2022-10-17T18:32:16.136Z,90.00
2022-10-17T18:35:38.138Z,91.10
2022-10-17T18:39:10.148Z,91.40
2022-10-17T18:42:47.217Z,90.20
2022-10-17T18:46:30.616Z,90.10
2022-10-17T18:50:02.076Z,90.20
2022-10-17T18:53:34.477Z,90.20
2022-10-17T18:57:15.846Z,90.30
2022-10-17T19:00:47.220Z,90.30
2022-10-17T19:04:21.377Z,90.60
2022-10-17T19:07:52.422Z,90.70
2022-10-17T19:11:44.105Z,91.00
2022-10-17T19:15:16.875Z,90.80
2022-10-17T19:18:47.688Z,91.10
2022-10-17T19:22:19.324Z,91.10
2022-10-17T19:25:51.914Z,91.10
2022-10-17T19:29:23.834Z,91.20
2022-10-17T19:32:55.295Z,91.40
2022-10-17T19:36:39.901Z,91.40
2022-10-17T19:40:11.049Z,92.10
2022-10-17T19:43:41.834Z,91.80
2022-10-17T19:47:12.971Z,91.60
2022-10-17T19:50:44.111Z,91.40
2022-10-17T19:54:16.869Z,91.70
2022-10-17T19:57:47.816Z,91.40
2022-10-17T20:01:57.156Z,91.20
2022-10-17T20:05:28.215Z,91.50
2022-10-17T20:08:58.728Z,91.20
2022-10-17T20:12:29.610Z,91.40
2022-10-17T20:16:12.118Z,91.60
2022-10-17T20:19:46.253Z,91.80
2022-10-17T20:23:16.653Z,92.00
2022-10-17T20:26:49.679Z,91.90
2022-10-17T20:30:20.446Z,92.10
2022-10-17T20:33:51.136Z,91.80
2022-10-17T20:37:22.571Z,91.90
2022-10-17T20:40:54.092Z,92.70
2022-10-17T20:44:27.710Z,92.40
2022-10-17T20:47:59.556Z,92.30
2022-10-17T20:51:33.771Z,92.20
2022-10-17T20:55:05.314Z,95.30
2022-10-17T20:58:48.118Z,92.40
2022-10-17T23:40:04.161Z,94.30
2022-10-17T23:43:35.212Z,93.90
2022-10-17T23:47:06.281Z,95.00
2022-10-17T23:50:37.276Z,94.50
2022-10-17T23:54:08.398Z,94.60
2022-10-17T23:57:39.859Z,94.30
